Time;durP1;ratioP1;P1;durP2;ratioP2;P2;SDS_P1;SDS_P2;PMS_P1;PMS_P2;Temp;Humidity;BMP_temperature;BMP_pressure;BME280_temperature;BME280_humidity;BME280_pressure;Samples;Min_cycle;Max_cycle;Signal;HPM_P1;HPM_P2
2022/05/01 00:01:58;;;;;;;0.30;0.10;;;;;;;;;;4162658;28;20382;-35
2022/05/01 00:03:59;;;;;;;0.20;0.10;;;;;;;;;;4177416;28;20126;-36
2022/05/01 00:06:04;;;;;;;0.05;0.05;;;;;;;;;;4162598;28;20555;-35
2022/05/01 00:08:05;;;;;;;0.13;0.13;;;;;;;;;;4162511;28;20049;-35
2022/05/01 00:10:07;;;;;;;0.35;0.30;;;;;;;;;;4162628;28;20559;-35
2022/05/01 00:12:08;;;;;;;0.10;0.10;;;;;;;;;;4161626;28;20107;-35
2022/05/01 00:14:09;;;;;;;0.77;0.43;;;;;;;;;;4162475;28;20398;-35
2022/05/01 00:16:14;;;;;;;0.10;0.10;;;;;;;;;;4162549;28;20065;-35
2022/05/01 00:18:15;;;;;;;0.20;0.15;;;;;;;;;;4161039;28;20061;-36
2022/05/01 00:20:17;;;;;;;0.25;0.10;;;;;;;;;;4161254;28;20386;-35
2022/05/01 00:22:20;;;;;;;0.13;0.13;;;;;;;;;;4161157;28;20065;-35
2022/05/01 00:24:21;;;;;;;0.30;0.20;;;;;;;;;;4169723;28;20057;-35
2022/05/01 00:26:22;;;;;;;0.20;0.20;;;;;;;;;;4178930;28;20514;-35
2022/05/01 00:28:23;;;;;;;0.55;0.20;;;;;;;;;;4176605;28;20107;-35
2022/05/01 00:30:28;;;;;;;0.20;0.10;;;;;;;;;;4172285;28;20061;-35
2022/05/01 00:36:25;;;;;;;0.50;0.25;;;;;;;;;;4162364;28;20111;-35
2022/05/01 00:37:10;;;;;;;0.35;0.22;;;;;;;;;;4162668;28;20049;-36
2022/05/01 00:39:11;;;;;;;0.30;0.20;;;;;;;;;;4162130;28;20058;-35
2022/05/01 00:41:13;;;;;;;0.35;0.20;;;;;;;;;;4162565;28;20099;-35
2022/05/01 00:43:15;;;;;;;0.40;0.20;;;;;;;;;;4162348;28;20057;-37
2022/05/01 00:45:16;;;;;;;0.10;0.10;;;;;;;;;;4162434;28;20545;-35
2022/05/01 00:47:18;;;;;;;0.20;0.10;;;;;;;;;;4162300;28;20409;-35
2022/05/01 00:49:24;;;;;;;0.10;0.10;;;;;;;;;;4161915;28;20087;-35
2022/05/01 00:51:25;;;;;;;0.20;0.20;;;;;;;;;;4162226;28;20084;-35
2022/05/01 00:53:26;;;;;;;0.25;0.10;;;;;;;;;;4162315;28;20504;-35
2022/05/01 00:55:28;;;;;;;0.20;0.13;;;;;;;;;;4160919;28;20147;-35
2022/05/01 00:57:29;;;;;;;0.20;0.20;;;;;;;;;;4147447;28;20053;-35
2022/05/01 00:59:31;;;;;;;0.20;0.20;;;;;;;;;;4172200;28;20458;-35
2022/05/01 01:01:33;;;;;;;0.20;0.10;;;;;;;;;;4182377;28;20053;-35
2022/05/01 01:03:34;;;;;;;0.10;0.10;;;;;;;;;;4181130;28;20156;-35
2022/05/01 01:05:35;;;;;;;0.30;0.20;;;;;;;;;;4182074;28;20118;-35
2022/05/01 01:07:37;;;;;;;0.10;0.10;;;;;;;;;;4181840;28;20451;-35
2022/05/01 01:09:39;;;;;;;0.50;0.28;;;;;;;;;;4180543;28;20053;-35
2022/05/01 01:11:40;;;;;;;0.20;0.20;;;;;;;;;;4180524;28;20052;-37
2022/05/01 01:13:42;;;;;;;0.20;0.20;;;;;;;;;;4181668;28;20106;-36
2022/05/01 01:15:43;;;;;;;0.13;0.10;;;;;;;;;;4181816;28;20063;-35
2022/05/01 01:17:46;;;;;;;0.55;0.20;;;;;;;;;;4181037;28;20049;-35
2022/05/01 01:19:47;;;;;;;0.20;0.15;;;;;;;;;;4181673;28;20094;-36
2022/05/01 01:21:52;;;;;;;0.15;0.10;;;;;;;;;;4175205;28;20056;-35
2022/05/01 01:23:53;;;;;;;0.52;0.28;;;;;;;;;;4150242;28;20054;-35
2022/05/01 01:25:54;;;;;;;0.17;0.17;;;;;;;;;;4164907;28;20053;-36
2022/05/01 01:28:02;;;;;;;0.28;0.22;;;;;;;;;;4163766;28;20046;-35
2022/05/01 01:32:26;;;;;;;0.40;0.20;;;;;;;;;;4169731;28;20110;-36
2022/05/01 01:34:32;;;;;;;0.30;0.10;;;;;;;;;;4172083;28;20064;-36
2022/05/01 01:36:33;;;;;;;0.10;0.10;;;;;;;;;;4180387;28;20052;-35
2022/05/01 01:38:34;;;;;;;0.20;0.20;;;;;;;;;;4179885;28;20052;-35
2022/05/01 01:40:57;;;;;;;0.35;0.25;;;;;;;;;;4181232;28;20461;-35
2022/05/01 01:42:58;;;;;;;0.10;0.10;;;;;;;;;;4181199;28;20397;-35
2022/05/01 01:45:00;;;;;;;0.30;0.17;;;;;;;;;;4181298;28;20060;-35
2022/05/01 01:47:01;;;;;;;0.25;0.20;;;;;;;;;;4180309;28;20053;-35
2022/05/01 01:49:07;;;;;;;0.20;0.20;;;;;;;;;;4180679;28;20045;-36
2022/05/01 01:51:08;;;;;;;0.20;0.10;;;;;;;;;;4174781;28;20378;-35
2022/05/01 01:53:11;;;;;;;0.13;0.13;;;;;;;;;;4170383;28;20057;-36
2022/05/01 01:55:16;;;;;;;0.10;0.10;;;;;;;;;;4164509;28;20049;-35
2022/05/01 01:57:17;;;;;;;0.50;0.30;;;;;;;;;;4164571;28;20072;-35
2022/05/01 01:59:19;;;;;;;0.20;0.20;;;;;;;;;;4164649;28;20099;-35
2022/05/01 02:01:20;;;;;;;0.40;0.20;;;;;;;;;;4167647;28;20057;-35
2022/05/01 02:03:23;;;;;;;0.13;0.10;;;;;;;;;;4171306;28;20053;-36
2022/05/01 02:05:25;;;;;;;0.22;0.20;;;;;;;;;;4164479;28;20552;-35
2022/05/01 02:07:29;;;;;;;0.32;0.20;;;;;;;;;;4175037;28;20496;-35
2022/05/01 02:09:30;;;;;;;0.30;0.20;;;;;;;;;;4179236;28;20049;-35
2022/05/01 02:11:34;;;;;;;0.20;0.10;;;;;;;;;;4174295;28;20060;-35
2022/05/01 02:13:35;;;;;;;0.30;0.28;;;;;;;;;;4169902;28;20080;-36
2022/05/01 02:15:37;;;;;;;0.13;0.13;;;;;;;;;;4167777;28;20401;-35
2022/05/01 02:17:41;;;;;;;0.43;0.30;;;;;;;;;;4171862;28;20159;-36
2022/05/01 02:19:42;;;;;;;0.22;0.20;;;;;;;;;;4178853;28;20106;-35
2022/05/01 02:21:44;;;;;;;0.30;0.30;;;;;;;;;;4178740;28;20790;-35
2022/05/01 02:23:45;;;;;;;0.20;0.10;;;;;;;;;;4174660;28;20053;-35
2022/05/01 02:25:47;;;;;;;0.25;0.13;;;;;;;;;;4170406;28;20056;-36
2022/05/01 02:27:49;;;;;;;0.10;0.10;;;;;;;;;;4163566;28;20057;-35
2022/05/01 02:29:50;;;;;;;0.28;0.20;;;;;;;;;;4162152;28;20489;-35
2022/05/01 02:31:55;;;;;;;0.30;0.22;;;;;;;;;;4162178;28;20050;-35
2022/05/01 02:33:56;;;;;;;0.20;0.20;;;;;;;;;;4171583;28;20052;-35
2022/05/01 02:35:58;;;;;;;0.20;0.20;;;;;;;;;;4168276;28;20057;-35
2022/05/01 02:37:59;;;;;;;0.17;0.13;;;;;;;;;;4166276;28;20054;-35
2022/05/01 02:40:02;;;;;;;0.13;0.13;;;;;;;;;;4180439;28;20053;-35
2022/05/01 02:42:03;;;;;;;0.30;0.17;;;;;;;;;;4180738;28;20455;-35
2022/05/01 02:44:05;;;;;;;0.10;0.10;;;;;;;;;;4180203;28;20088;-36
2022/05/01 02:46:06;;;;;;;0.10;0.10;;;;;;;;;;4172399;28;20489;-35
2022/05/01 02:48:07;;;;;;;0.63;0.20;;;;;;;;;;4173449;28;20041;-35
2022/05/01 02:50:09;;;;;;;0.20;0.20;;;;;;;;;;4178389;28;20068;-35
2022/05/01 02:52:10;;;;;;;0.25;0.25;;;;;;;;;;4178433;28;20053;-36
2022/05/01 02:54:11;;;;;;;0.50;0.20;;;;;;;;;;4178104;28;20106;-35
2022/05/01 02:56:12;;;;;;;0.20;0.20;;;;;;;;;;4178224;28;20533;-35
2022/05/01 02:58:13;;;;;;;0.95;0.28;;;;;;;;;;4176767;28;20091;-35
2022/05/01 03:00:18;;;;;;;0.20;0.10;;;;;;;;;;4177743;28;20079;-35
2022/05/01 03:02:19;;;;;;;0.10;0.10;;;;;;;;;;4177802;28;20083;-36
2022/05/01 03:04:20;;;;;;;0.52;0.20;;;;;;;;;;4164585;28;20061;-35
2022/05/01 03:06:21;;;;;;;0.30;0.20;;;;;;;;;;4163694;28;20103;-35
2022/05/01 03:08:23;;;;;;;0.43;0.25;;;;;;;;;;4163413;28;20100;-36
2022/05/01 03:10:24;;;;;;;0.30;0.20;;;;;;;;;;4163505;28;20053;-35
2022/05/01 03:12:25;;;;;;;0.25;0.10;;;;;;;;;;4162576;28;20058;-35
2022/05/01 03:14:26;;;;;;;0.30;0.10;;;;;;;;;;4161769;28;20131;-35
2022/05/01 03:16:27;;;;;;;0.45;0.15;;;;;;;;;;4163633;28;20057;-36
2022/05/01 03:23:09;;;;;;;0.28;0.20;;;;;;;;;;4163070;28;20385;-36
2022/05/01 03:25:10;;;;;;;0.20;0.20;;;;;;;;;;4177476;28;20057;-35
2022/05/01 03:27:12;;;;;;;0.20;0.10;;;;;;;;;;4179628;28;20052;-35
2022/05/01 03:29:17;;;;;;;0.85;0.20;;;;;;;;;;4179643;28;20056;-35
2022/05/01 03:31:18;;;;;;;0.20;0.20;;;;;;;;;;4168319;28;20069;-37
2022/05/01 03:33:22;;;;;;;0.20;0.20;;;;;;;;;;4161327;28;20053;-35
2022/05/01 03:35:23;;;;;;;0.20;0.20;;;;;;;;;;4163240;28;20057;-35
2022/05/01 03:37:24;;;;;;;0.20;0.20;;;;;;;;;;4163024;28;20119;-35
2022/05/01 03:39:25;;;;;;;0.20;0.17;;;;;;;;;;4163063;28;20049;-36
2022/05/01 03:41:27;;;;;;;0.28;0.20;;;;;;;;;;4161897;28;20497;-36
2022/05/01 03:43:28;;;;;;;1.55;0.20;;;;;;;;;;4162728;28;20064;-36
2022/05/01 03:45:29;;;;;;;0.20;0.20;;;;;;;;;;4162981;28;20119;-35
2022/05/01 03:47:32;;;;;;;0.20;0.20;;;;;;;;;;4162689;28;20107;-35
2022/05/01 03:49:34;;;;;;;0.10;0.10;;;;;;;;;;4162694;28;20119;-36
2022/05/01 03:51:35;;;;;;;0.20;0.20;;;;;;;;;;4163048;28;20058;-35
2022/05/01 03:53:36;;;;;;;0.15;0.15;;;;;;;;;;4162612;28;20359;-36
2022/05/01 03:55:38;;;;;;;0.20;0.20;;;;;;;;;;4162685;28;20394;-35
2022/05/01 03:57:39;;;;;;;0.30;0.20;;;;;;;;;;4162581;28;20061;-35
2022/05/01 03:59:40;;;;;;;0.13;0.10;;;;;;;;;;4170895;28;20056;-35
2022/05/01 04:01:42;;;;;;;0.40;0.20;;;;;;;;;;4179214;28;20092;-35
2022/05/01 04:03:43;;;;;;;0.30;0.20;;;;;;;;;;4178526;28;20057;-36
2022/05/01 04:05:45;;;;;;;0.30;0.13;;;;;;;;;;4179127;28;20068;-36
2022/05/01 04:07:46;;;;;;;0.50;0.32;;;;;;;;;;4177713;28;20087;-35
2022/05/01 04:09:47;;;;;;;0.22;0.20;;;;;;;;;;4172487;28;20103;-36
2022/05/01 04:11:48;;;;;;;0.25;0.25;;;;;;;;;;4168594;28;20057;-35
2022/05/01 04:13:50;;;;;;;0.38;0.20;;;;;;;;;;4162320;28;20576;-35
2022/05/01 04:15:51;;;;;;;0.68;0.35;;;;;;;;;;4162493;28;20097;-35
2022/05/01 04:17:52;;;;;;;0.20;0.10;;;;;;;;;;4161969;28;20045;-35
2022/05/01 04:19:53;;;;;;;0.32;0.30;;;;;;;;;;4162375;28;20405;-35
2022/05/01 04:21:55;;;;;;;0.75;0.20;;;;;;;;;;4162491;28;20127;-35
2022/05/01 04:23:57;;;;;;;0.30;0.30;;;;;;;;;;4162361;28;20053;-35
2022/05/01 04:25:58;;;;;;;0.20;0.20;;;;;;;;;;4162444;28;20065;-35
2022/05/01 04:28:04;;;;;;;0.20;0.20;;;;;;;;;;4162271;28;20057;-35
2022/05/01 04:30:05;;;;;;;0.20;0.20;;;;;;;;;;4162653;28;20049;-35
2022/05/01 04:32:08;;;;;;;0.40;0.30;;;;;;;;;;4167929;28;20053;-35
2022/05/01 04:34:10;;;;;;;0.47;0.20;;;;;;;;;;4183787;28;20061;-35
2022/05/01 04:36:11;;;;;;;0.15;0.15;;;;;;;;;;4184316;28;20130;-35
2022/05/01 04:38:14;;;;;;;0.30;0.22;;;;;;;;;;4184055;28;20045;-35
2022/05/01 04:40:15;;;;;;;0.20;0.20;;;;;;;;;;4184312;28;20492;-36
2022/05/01 04:42:17;;;;;;;0.43;0.30;;;;;;;;;;4184261;28;20102;-36
2022/05/01 04:44:19;;;;;;;0.20;0.20;;;;;;;;;;4184170;28;20056;-35
2022/05/01 04:46:20;;;;;;;0.32;0.20;;;;;;;;;;4184262;28;20118;-36
2022/05/01 04:48:23;;;;;;;0.28;0.20;;;;;;;;;;4183542;28;20102;-35
2022/05/01 04:50:25;;;;;;;0.25;0.20;;;;;;;;;;4178167;28;20118;-35
2022/05/01 04:52:26;;;;;;;0.15;0.15;;;;;;;;;;4172261;28;20493;-35
2022/05/01 04:54:27;;;;;;;0.20;0.20;;;;;;;;;;4167604;28;20060;-35
2022/05/01 04:58:48;;;;;;;0.40;0.17;;;;;;;;;;4167861;28;20049;-35
2022/05/01 05:00:49;;;;;;;0.13;0.10;;;;;;;;;;4166476;28;20083;-35
2022/05/01 05:02:53;;;;;;;0.10;0.10;;;;;;;;;;4167179;28;20168;-35
2022/05/01 05:04:54;;;;;;;0.38;0.20;;;;;;;;;;4167937;28;20061;-35
2022/05/01 05:06:56;;;;;;;0.20;0.20;;;;;;;;;;4174519;28;20053;-36
2022/05/01 05:11:16;;;;;;;0.15;0.15;;;;;;;;;;4184256;28;20110;-35
2022/05/01 05:13:22;;;;;;;0.20;0.20;;;;;;;;;;4183962;28;20087;-36
2022/05/01 05:15:23;;;;;;;0.10;0.10;;;;;;;;;;4184044;28;20102;-35
2022/05/01 05:17:24;;;;;;;0.30;0.20;;;;;;;;;;4184192;28;20057;-36
2022/05/01 05:19:26;;;;;;;0.30;0.30;;;;;;;;;;4183573;28;20056;-35
2022/05/01 05:21:27;;;;;;;0.20;0.20;;;;;;;;;;4184106;28;20481;-35
2022/05/01 05:23:28;;;;;;;0.30;0.28;;;;;;;;;;4184205;28;20068;-35
2022/05/01 05:25:30;;;;;;;0.20;0.13;;;;;;;;;;4184051;28;20061;-36
2022/05/01 05:27:31;;;;;;;0.20;0.20;;;;;;;;;;4184170;28;20087;-36
2022/05/01 05:29:32;;;;;;;0.45;0.30;;;;;;;;;;4184296;28;20044;-35
2022/05/01 05:31:33;;;;;;;0.35;0.35;;;;;;;;;;4184267;28;20060;-35
2022/05/01 05:33:35;;;;;;;0.20;0.20;;;;;;;;;;4183432;28;20060;-35
2022/05/01 05:35:36;;;;;;;0.20;0.20;;;;;;;;;;4184163;28;20103;-36
2022/05/01 05:37:37;;;;;;;0.40;0.25;;;;;;;;;;4184155;28;20110;-35
2022/05/01 05:39:39;;;;;;;0.30;0.30;;;;;;;;;;4184148;28;20081;-35
2022/05/01 05:41:40;;;;;;;0.20;0.20;;;;;;;;;;4184078;28;20057;-35
2022/05/01 05:43:41;;;;;;;0.40;0.40;;;;;;;;;;4181360;28;20107;-35
2022/05/01 05:45:42;;;;;;;0.10;0.10;;;;;;;;;;4181257;28;20048;-36
2022/05/01 05:47:44;;;;;;;0.35;0.28;;;;;;;;;;4179284;28;20052;-36
2022/05/01 05:49:45;;;;;;;0.45;0.22;;;;;;;;;;4181273;28;20519;-35
2022/05/01 05:51:46;;;;;;;0.75;0.30;;;;;;;;;;4181525;28;20057;-35
2022/05/01 05:53:51;;;;;;;0.30;0.30;;;;;;;;;;4180948;28;20542;-35
2022/05/01 05:55:53;;;;;;;0.30;0.25;;;;;;;;;;4181032;28;20061;-35
2022/05/01 05:57:54;;;;;;;0.30;0.20;;;;;;;;;;4180894;28;20488;-36
2022/05/01 05:59:55;;;;;;;0.40;0.30;;;;;;;;;;4181345;28;20107;-35
2022/05/01 06:01:56;;;;;;;0.52;0.30;;;;;;;;;;4180750;28;20057;-35
2022/05/01 06:03:57;;;;;;;0.10;0.10;;;;;;;;;;4180529;28;20079;-35
2022/05/01 06:05:59;;;;;;;0.30;0.20;;;;;;;;;;4181033;28;20059;-35
2022/05/01 06:08:00;;;;;;;0.20;0.10;;;;;;;;;;4180503;28;20338;-36
2022/05/01 06:10:01;;;;;;;0.40;0.20;;;;;;;;;;4180863;28;20060;-35
2022/05/01 06:12:02;;;;;;;0.20;0.20;;;;;;;;;;4181037;28;20053;-35
2022/05/01 06:14:04;;;;;;;0.17;0.17;;;;;;;;;;4180697;28;20546;-35
2022/05/01 06:16:05;;;;;;;0.40;0.35;;;;;;;;;;4180726;28;20052;-35
2022/05/01 06:18:07;;;;;;;0.57;0.38;;;;;;;;;;4179088;28;20051;-35
2022/05/01 06:20:08;;;;;;;0.40;0.20;;;;;;;;;;4180991;28;20465;-35
2022/05/01 06:22:09;;;;;;;0.20;0.20;;;;;;;;;;4181056;28;20053;-35
2022/05/01 06:24:11;;;;;;;0.30;0.20;;;;;;;;;;4180505;28;20052;-35
2022/05/01 06:26:11;;;;;;;0.40;0.30;;;;;;;;;;4180720;28;20060;-36
2022/05/01 06:28:14;;;;;;;0.20;0.10;;;;;;;;;;4180487;28;20118;-35
2022/05/01 06:30:15;;;;;;;0.30;0.20;;;;;;;;;;4180491;28;20194;-35
2022/05/01 06:32:17;;;;;;;0.30;0.13;;;;;;;;;;4179482;28;20052;-36
2022/05/01 06:34:18;;;;;;;0.30;0.20;;;;;;;;;;4180160;28;20053;-35
2022/05/01 06:36:19;;;;;;;0.28;0.20;;;;;;;;;;4180588;28;20106;-35
2022/05/01 06:38:21;;;;;;;0.43;0.20;;;;;;;;;;4180201;28;20053;-35
2022/05/01 06:40:22;;;;;;;0.30;0.30;;;;;;;;;;4180655;28;20075;-36
2022/05/01 06:42:23;;;;;;;0.60;0.32;;;;;;;;;;4180478;28;20057;-35
2022/05/01 06:44:25;;;;;;;0.35;0.30;;;;;;;;;;4180109;28;20064;-35
2022/05/01 06:46:26;;;;;;;0.10;0.10;;;;;;;;;;4180298;28;20405;-35
2022/05/01 06:48:27;;;;;;;0.43;0.28;;;;;;;;;;4179597;28;20071;-35
2022/05/01 06:50:30;;;;;;;0.20;0.20;;;;;;;;;;4180266;28;20460;-35
2022/05/01 06:52:31;;;;;;;0.30;0.10;;;;;;;;;;4178978;28;20115;-35
2022/05/01 06:54:32;;;;;;;0.20;0.20;;;;;;;;;;4179619;28;20114;-35
2022/05/01 06:56:34;;;;;;;0.20;0.20;;;;;;;;;;4180279;28;20053;-35
2022/05/01 06:58:36;;;;;;;0.30;0.30;;;;;;;;;;4180048;28;20076;-35
2022/05/01 07:00:37;;;;;;;0.40;0.20;;;;;;;;;;4179986;28;20049;-36
2022/05/01 07:02:48;;;;;;;0.55;0.30;;;;;;;;;;4179570;28;20262;-35
2022/05/01 07:04:50;;;;;;;0.30;0.20;;;;;;;;;;4180367;28;20056;-35
2022/05/01 07:06:51;;;;;;;0.30;0.20;;;;;;;;;;4179920;28;20159;-35
2022/05/01 07:08:52;;;;;;;0.40;0.20;;;;;;;;;;4180133;28;20118;-35
2022/05/01 07:10:53;;;;;;;0.35;0.22;;;;;;;;;;4180102;28;20114;-35
2022/05/01 07:12:54;;;;;;;0.70;0.30;;;;;;;;;;4178437;28;20562;-35
2022/05/01 07:14:55;;;;;;;0.25;0.20;;;;;;;;;;4179903;28;20045;-36
2022/05/01 07:16:56;;;;;;;0.20;0.20;;;;;;;;;;4179835;28;20052;-35
2022/05/01 07:18:58;;;;;;;0.30;0.20;;;;;;;;;;4179197;28;20111;-35
2022/05/01 07:20:59;;;;;;;0.20;0.20;;;;;;;;;;4179859;28;20049;-36
2022/05/01 07:23:00;;;;;;;0.30;0.20;;;;;;;;;;4178625;28;20087;-35
2022/05/01 07:25:02;;;;;;;0.20;0.20;;;;;;;;;;4179781;28;20057;-35
2022/05/01 07:27:03;;;;;;;0.30;0.25;;;;;;;;;;4179853;28;20057;-35
2022/05/01 07:29:04;;;;;;;0.38;0.20;;;;;;;;;;4179445;28;20068;-35
2022/05/01 07:31:05;;;;;;;0.17;0.17;;;;;;;;;;4179645;28;20052;-35
2022/05/01 07:33:07;;;;;;;0.32;0.28;;;;;;;;;;4178972;28;20102;-35
2022/05/01 07:35:09;;;;;;;0.63;0.32;;;;;;;;;;4178567;28;20052;-35
2022/05/01 07:37:10;;;;;;;0.35;0.28;;;;;;;;;;4179790;28;20064;-35
2022/05/01 07:39:12;;;;;;;0.17;0.17;;;;;;;;;;4179210;28;20049;-36
2022/05/01 07:41:13;;;;;;;0.32;0.30;;;;;;;;;;4179710;28;20053;-35
2022/05/01 07:43:14;;;;;;;0.20;0.20;;;;;;;;;;4178032;28;20427;-35
2022/05/01 07:45:15;;;;;;;0.40;0.30;;;;;;;;;;4179399;28;20064;-35
2022/05/01 07:47:17;;;;;;;0.60;0.30;;;;;;;;;;4179410;28;20053;-35
2022/05/01 07:49:19;;;;;;;0.30;0.10;;;;;;;;;;4179299;28;20053;-35
2022/05/01 07:51:20;;;;;;;0.30;0.20;;;;;;;;;;4178016;28;20052;-35
2022/05/01 07:53:22;;;;;;;0.25;0.25;;;;;;;;;;4179160;28;20049;-36
2022/05/01 07:55:23;;;;;;;1.65;0.25;;;;;;;;;;4179435;28;20049;-35
2022/05/01 07:57:26;;;;;;;0.30;0.30;;;;;;;;;;4179065;28;20331;-35
2022/05/01 07:59:27;;;;;;;0.30;0.20;;;;;;;;;;4179105;28;20045;-35
2022/05/01 08:01:28;;;;;;;0.20;0.20;;;;;;;;;;4179207;28;20451;-35
2022/05/01 08:05:49;;;;;;;0.40;0.20;;;;;;;;;;4178778;28;20053;-35
2022/05/01 08:07:53;;;;;;;0.38;0.28;;;;;;;;;;4178810;28;20057;-35
2022/05/01 08:09:55;;;;;;;0.85;0.50;;;;;;;;;;4179486;28;20553;-36
2022/05/01 08:11:57;;;;;;;0.20;0.20;;;;;;;;;;4178469;28;20056;-35
2022/05/01 08:13:58;;;;;;;0.20;0.20;;;;;;;;;;4177647;28;20057;-35
2022/05/01 08:16:00;;;;;;;0.20;0.17;;;;;;;;;;4179041;28;20052;-35
2022/05/01 08:21:05;;;;;;;0.30;0.20;;;;;;;;;;4178548;28;20056;-35
2022/05/01 08:22:42;;;;;;;0.20;0.20;;;;;;;;;;4179219;28;20057;-35
2022/05/01 08:24:43;;;;;;;0.25;0.20;;;;;;;;;;4179132;28;20330;-35
2022/05/01 08:26:48;;;;;;;0.25;0.20;;;;;;;;;;4178864;28;20103;-35
2022/05/01 08:28:51;;;;;;;0.20;0.20;;;;;;;;;;4178837;28;20079;-35
2022/05/01 08:30:54;;;;;;;0.30;0.30;;;;;;;;;;4161431;28;20077;-35
2022/05/01 08:32:55;;;;;;;0.30;0.30;;;;;;;;;;4178458;28;20053;-35
2022/05/01 08:34:56;;;;;;;1.40;0.30;;;;;;;;;;4178883;28;20052;-35
2022/05/01 08:36:57;;;;;;;0.63;0.20;;;;;;;;;;4179125;28;20107;-36
2022/05/01 08:38:59;;;;;;;0.20;0.20;;;;;;;;;;4178547;28;20348;-35
2022/05/01 08:41:00;;;;;;;0.20;0.20;;;;;;;;;;4178772;28;20095;-35
2022/05/01 08:43:02;;;;;;;0.85;0.43;;;;;;;;;;4178692;28;20110;-35
2022/05/01 08:45:03;;;;;;;0.20;0.20;;;;;;;;;;4178846;28;20064;-35
2022/05/01 08:47:18;;;;;;;0.30;0.30;;;;;;;;;;4177453;28;20495;-35
2022/05/01 08:49:21;;;;;;;0.20;0.20;;;;;;;;;;4178319;28;20142;-35
2022/05/01 08:51:23;;;;;;;0.38;0.20;;;;;;;;;;4177525;28;20053;-35
2022/05/01 08:53:24;;;;;;;0.28;0.22;;;;;;;;;;4178585;28;20068;-35
2022/05/01 08:55:25;;;;;;;0.30;0.30;;;;;;;;;;4178790;28;20056;-35
2022/05/01 08:57:28;;;;;;;0.63;0.25;;;;;;;;;;4179084;28;20049;-36
2022/05/01 08:59:31;;;;;;;0.85;0.30;;;;;;;;;;4178828;28;20079;-35
2022/05/01 09:01:34;;;;;;;0.30;0.20;;;;;;;;;;4178698;28;20049;-35
2022/05/01 09:03:36;;;;;;;0.40;0.40;;;;;;;;;;4178065;28;20127;-35
2022/05/01 09:05:39;;;;;;;0.30;0.20;;;;;;;;;;4177416;28;20520;-35
2022/05/01 09:07:40;;;;;;;0.20;0.20;;;;;;;;;;4178531;28;20512;-35
2022/05/01 09:09:42;;;;;;;0.38;0.20;;;;;;;;;;4177350;28;20053;-35
2022/05/01 09:14:04;;;;;;;0.30;0.30;;;;;;;;;;4178643;28;20057;-35
2022/05/01 09:16:12;;;;;;;0.45;0.40;;;;;;;;;;4178507;28;20404;-35
2022/05/01 09:18:16;;;;;;;1.02;0.35;;;;;;;;;;4180191;28;20052;-35
2022/05/01 09:20:17;;;;;;;0.77;0.43;;;;;;;;;;4181745;28;20094;-35
2022/05/01 09:22:20;;;;;;;0.45;0.30;;;;;;;;;;4181946;28;20110;-35
2022/05/01 09:24:28;;;;;;;0.20;0.20;;;;;;;;;;4181423;28;20061;-35
2022/05/01 09:26:36;;;;;;;1.05;0.30;;;;;;;;;;4181786;28;20094;-35
2022/05/01 09:28:47;;;;;;;0.57;0.25;;;;;;;;;;4181621;28;20045;-35
2022/05/01 09:30:48;;;;;;;0.73;0.40;;;;;;;;;;4181654;28;20451;-35
2022/05/01 09:32:49;;;;;;;0.30;0.20;;;;;;;;;;4180908;28;20052;-35
2022/05/01 09:34:51;;;;;;;0.70;0.30;;;;;;;;;;4181567;28;20126;-35
2022/05/01 09:36:52;;;;;;;0.40;0.40;;;;;;;;;;4181418;28;20420;-35
2022/05/01 09:39:03;;;;;;;0.47;0.30;;;;;;;;;;4181176;28;20053;-38
2022/05/01 09:41:13;;;;;;;0.60;0.32;;;;;;;;;;4180095;28;20196;-36
2022/05/01 09:43:34;;;;;;;0.77;0.30;;;;;;;;;;4181248;28;20391;-35
2022/05/01 09:45:35;;;;;;;0.25;0.20;;;;;;;;;;4181553;28;20390;-35
2022/05/01 09:47:41;;;;;;;0.50;0.40;;;;;;;;;;4180801;28;20441;-36
2022/05/01 09:49:48;;;;;;;0.45;0.40;;;;;;;;;;4181315;28;20075;-35
2022/05/01 09:51:56;;;;;;;0.35;0.30;;;;;;;;;;4181729;28;20064;-35
2022/05/01 09:53:58;;;;;;;0.60;0.20;;;;;;;;;;4181027;28;20057;-35
2022/05/01 09:56:00;;;;;;;0.22;0.15;;;;;;;;;;4181514;28;20056;-35
2022/05/01 09:58:10;;;;;;;0.22;0.22;;;;;;;;;;4180815;28;20209;-35
2022/05/01 10:00:11;;;;;;;0.30;0.30;;;;;;;;;;4179751;28;20069;-35
2022/05/01 10:02:13;;;;;;;0.77;0.30;;;;;;;;;;4180824;28;20496;-36
2022/05/01 10:04:14;;;;;;;1.13;0.45;;;;;;;;;;4180533;28;20126;-35
2022/05/01 10:06:16;;;;;;;0.55;0.20;;;;;;;;;;4179701;28;20451;-35
2022/05/01 10:08:18;;;;;;;0.60;0.25;;;;;;;;;;4179554;28;20087;-35
2022/05/01 10:10:19;;;;;;;0.52;0.30;;;;;;;;;;4180929;28;20049;-35
2022/05/01 10:12:22;;;;;;;0.60;0.28;;;;;;;;;;4179657;28;20409;-36
2022/05/01 10:14:24;;;;;;;0.63;0.40;;;;;;;;;;4181018;28;20103;-36
2022/05/01 10:16:26;;;;;;;0.70;0.30;;;;;;;;;;4180846;28;20075;-35
2022/05/01 10:18:27;;;;;;;0.63;0.30;;;;;;;;;;4180299;28;20477;-35
2022/05/01 10:20:29;;;;;;;0.55;0.30;;;;;;;;;;4179584;28;20106;-35
2022/05/01 10:22:31;;;;;;;0.77;0.50;;;;;;;;;;4180787;28;20063;-36
2022/05/01 10:24:34;;;;;;;0.43;0.20;;;;;;;;;;4179865;28;20057;-36
2022/05/01 10:26:38;;;;;;;0.60;0.30;;;;;;;;;;4180558;28;20459;-35
2022/05/01 10:28:45;;;;;;;0.80;0.32;;;;;;;;;;4178849;28;20064;-35
2022/05/01 10:33:44;;;;;;;0.52;0.40;;;;;;;;;;4179796;28;20366;-35
2022/05/01 10:36:03;;;;;;;0.50;0.35;;;;;;;;;;4180609;28;20060;-35
2022/05/01 10:38:09;;;;;;;0.73;0.30;;;;;;;;;;4180347;28;20474;-35
2022/05/01 10:40:10;;;;;;;0.45;0.35;;;;;;;;;;4180625;28;20579;-35
2022/05/01 10:42:11;;;;;;;0.40;0.30;;;;;;;;;;4180502;28;20538;-35
2022/05/01 10:44:35;;;;;;;0.50;0.20;;;;;;;;;;4178946;28;20075;-35
2022/05/01 10:46:36;;;;;;;0.15;0.15;;;;;;;;;;4180389;28;20087;-35
2022/05/01 10:48:39;;;;;;;0.20;0.20;;;;;;;;;;4179920;28;20049;-35
2022/05/01 10:50:40;;;;;;;0.30;0.30;;;;;;;;;;4180427;28;20057;-35
2022/05/01 10:53:08;;;;;;;1.83;0.30;;;;;;;;;;4179950;28;20053;-35
2022/05/01 10:55:09;;;;;;;0.60;0.40;;;;;;;;;;4180221;28;20382;-35
2022/05/01 10:57:12;;;;;;;0.47;0.25;;;;;;;;;;4180161;28;20118;-35
2022/05/01 10:59:28;;;;;;;1.13;0.40;;;;;;;;;;4180102;28;20450;-35
2022/05/01 11:01:52;;;;;;;1.38;0.40;;;;;;;;;;4180208;28;20430;-35
2022/05/01 11:03:55;;;;;;;0.30;0.20;;;;;;;;;;4179596;28;20065;-35
2022/05/01 11:05:59;;;;;;;0.77;0.50;;;;;;;;;;4178794;28;20053;-35
2022/05/01 11:08:01;;;;;;;0.30;0.30;;;;;;;;;;4179823;28;20114;-35
2022/05/01 11:10:04;;;;;;;2.13;0.40;;;;;;;;;;4179933;28;20404;-36
2022/05/01 11:12:09;;;;;;;0.20;0.10;;;;;;;;;;4180252;28;20052;-36
2022/05/01 11:14:13;;;;;;;0.25;0.20;;;;;;;;;;4179856;28;20052;-35
2022/05/01 11:16:14;;;;;;;0.75;0.30;;;;;;;;;;4179758;28;20114;-35
2022/05/01 11:18:16;;;;;;;2.45;0.30;;;;;;;;;;4179405;28;20049;-36
2022/05/01 11:20:24;;;;;;;1.48;0.35;;;;;;;;;;4178234;28;20053;-35
2022/05/01 11:22:26;;;;;;;0.50;0.40;;;;;;;;;;4179788;28;20091;-35
2022/05/01 11:24:43;;;;;;;0.82;0.40;;;;;;;;;;4179616;28;20461;-35
2022/05/01 11:27:10;;;;;;;0.75;0.45;;;;;;;;;;4179778;28;20061;-35
2022/05/01 11:29:13;;;;;;;0.95;0.22;;;;;;;;;;4178313;28;20057;-35
2022/05/01 11:31:36;;;;;;;0.77;0.32;;;;;;;;;;4179761;28;20465;-35
2022/05/01 11:33:38;;;;;;;0.68;0.50;;;;;;;;;;4179542;28;20045;-35
2022/05/01 11:35:57;;;;;;;0.68;0.40;;;;;;;;;;4178223;28;20052;-35
2022/05/01 11:38:05;;;;;;;0.30;0.30;;;;;;;;;;4179394;28;20053;-36
2022/05/01 11:40:16;;;;;;;1.65;0.20;;;;;;;;;;4179438;28;20053;-35
2022/05/01 11:42:26;;;;;;;1.13;0.30;;;;;;;;;;4178241;28;20442;-36
2022/05/01 11:44:27;;;;;;;;;;;;;;;;;;4180006;28;20111;-35
2022/05/01 11:46:30;;;;;;;0.60;0.30;;;;;;;;;;4179466;28;19920;-35
2022/05/01 11:48:34;;;;;;;0.77;0.30;;;;;;;;;;4179046;28;20053;-35
2022/05/01 11:50:35;;;;;;;2.03;0.50;;;;;;;;;;4179349;28;20061;-35
2022/05/01 11:52:37;;;;;;;0.57;0.30;;;;;;;;;;4178090;28;20049;-35
2022/05/01 11:54:47;;;;;;;0.82;0.47;;;;;;;;;;4179264;28;20072;-35
2022/05/01 12:03:48;;;;;;;0.47;0.40;;;;;;;;;;4178027;28;20060;-35
2022/05/01 12:05:49;;;;;;;0.50;0.30;;;;;;;;;;4179212;28;20459;-35
2022/05/01 12:07:55;;;;;;;1.58;0.47;;;;;;;;;;4179093;28;20114;-35
2022/05/01 12:09:56;;;;;;;0.60;0.32;;;;;;;;;;4179188;28;20075;-35
2022/05/01 12:11:58;;;;;;;2.42;0.50;;;;;;;;;;4177871;28;20170;-36
2022/05/01 12:14:06;;;;;;;1.42;0.70;;;;;;;;;;4179176;28;20060;-35
2022/05/01 12:16:07;;;;;;;0.90;0.30;;;;;;;;;;4179105;28;20052;-35
2022/05/01 12:18:08;;;;;;;0.80;0.20;;;;;;;;;;4177244;28;20083;-35
2022/05/01 12:20:11;;;;;;;0.57;0.30;;;;;;;;;;4178943;28;20056;-35
2022/05/01 12:22:18;;;;;;;1.35;0.63;;;;;;;;;;4177676;28;20061;-36
2022/05/01 12:24:19;;;;;;;1.13;0.20;;;;;;;;;;4178930;28;20114;-35
2022/05/01 12:26:20;;;;;;;0.25;0.25;;;;;;;;;;4179230;28;20052;-35
2022/05/01 12:28:23;;;;;;;2.40;0.40;;;;;;;;;;4177910;28;20052;-36
2022/05/01 12:30:28;;;;;;;0.90;0.50;;;;;;;;;;4178971;28;20458;-36
2022/05/01 12:32:29;;;;;;;0.65;0.30;;;;;;;;;;4178772;28;20071;-35
2022/05/01 12:34:33;;;;;;;0.60;0.40;;;;;;;;;;4178640;28;20126;-35
2022/05/01 12:36:34;;;;;;;0.60;0.30;;;;;;;;;;4178888;28;20461;-37
2022/05/01 12:38:36;;;;;;;0.60;0.40;;;;;;;;;;4178804;28;20049;-35
2022/05/01 12:45:22;;;;;;;2.20;0.28;;;;;;;;;;4179022;28;20084;-36
2022/05/01 12:47:31;;;;;;;1.20;0.43;;;;;;;;;;4178747;28;20111;-35
2022/05/01 12:49:32;;;;;;;0.40;0.30;;;;;;;;;;4178585;28;20400;-36
2022/05/01 12:51:41;;;;;;;1.38;0.20;;;;;;;;;;4178736;28;20102;-35
2022/05/01 12:53:42;;;;;;;0.82;0.30;;;;;;;;;;4181756;28;20053;-36